Newbiggin-by-the-Sea, United Kingdom
Current Conditions -  °F | °C
As of 8:20 PM on Monday 26 Jan 2015 (Local Time) from EGNT Reporting Station
Clear Clear  
Wind Chill: 31°   Ceiling: Unl
Heat Index: 39°   Visibility: 6mi
Dew Point: 34°   Wind: 15mph
Humidity: 81%   Direction: 280°W
Pressure: 30.21"   Gusts: NA
Location:  55.19°N, 1.51°W
Report Text: EGNT 262020Z 28013KT CAVOK 04/01 Q1023
Loading
Personal Weather Stations






























Interactive Weather Map New forecast layout! Learn more

10-Day Weather Forecast

Advertisements
Track Severe Weather on mobile